Time;durP1;ratioP1;P1;durP2;ratioP2;P2;SDS_P1;SDS_P2;PMS_P1;PMS_P2;Temp;Humidity;BMP_temperature;BMP_pressure;BME280_temperature;BME280_humidity;BME280_pressure;Samples;Min_cycle;Max_cycle;Signal;HPM_P1;HPM_P2
2022/05/07 00:00:22;;;;;;;12.25;4.63;;;;;;;4.97;100.00;102252.69;5007074;28;20084;-82
2022/05/07 00:02:48;;;;;;;11.43;4.88;;;;;;;5.01;100.00;102223.06;5022389;28;20059;-80
2022/05/07 00:05:14;;;;;;;11.02;3.47;;;;;;;5.57;100.00;102246.78;5044575;28;20119;-81
2022/05/07 00:07:40;;;;;;;11.68;4.15;;;;;;;5.87;100.00;102253.59;5043933;28;20276;-83
2022/05/07 00:10:09;;;;;;;18.40;5.45;;;;;;;6.14;100.00;102245.50;5022281;28;20036;-83
2022/05/07 00:12:34;;;;;;;14.90;4.50;;;;;;;6.51;100.00;102253.47;5031004;28;20036;-85
2022/05/07 00:15:00;;;;;;;16.77;4.38;;;;;;;6.76;100.00;102248.03;5009709;28;20034;-84
2022/05/07 00:20:10;;;;;;;10.43;3.72;;;;;;;7.24;100.00;102247.97;5047090;28;20075;-83
2022/05/07 00:22:36;;;;;;;10.63;3.70;;;;;;;7.19;100.00;102243.94;5046207;28;20029;-86
2022/05/07 00:25:02;;;;;;;9.20;3.67;;;;;;;7.00;100.00;102231.97;5048531;28;20182;-83
2022/05/07 00:27:28;;;;;;;17.10;4.65;;;;;;;7.07;100.00;102247.56;5016397;28;20043;-83
2022/05/07 00:29:53;;;;;;;17.50;5.47;;;;;;;7.10;100.00;102245.50;5049068;28;20033;-84
2022/05/07 00:32:19;;;;;;;18.77;5.20;;;;;;;7.22;100.00;102252.59;5044589;28;20043;-82
2022/05/07 00:34:44;;;;;;;32.58;6.45;;;;;;;7.40;100.00;102246.78;5051802;28;20025;-81
2022/05/07 00:37:11;;;;;;;29.13;6.82;;;;;;;7.61;100.00;102245.09;5047293;28;20021;-87
2022/05/07 00:39:36;;;;;;;34.47;8.50;;;;;;;7.76;100.00;102244.91;5048014;28;20074;-82
2022/05/07 00:42:03;;;;;;;22.27;5.88;;;;;;;7.87;100.00;102226.16;5042764;28;20130;-83
2022/05/07 00:44:29;;;;;;;31.85;6.68;;;;;;;8.07;100.00;102243.28;5017122;28;20025;-82
2022/05/07 00:46:59;;;;;;;43.20;8.43;;;;;;;8.13;100.00;102240.13;5013267;28;20048;-82
2022/05/07 00:49:24;;;;;;;32.10;7.82;;;;;;;8.15;100.00;102239.03;5049564;28;20029;-84
2022/05/07 00:51:50;;;;;;;42.47;7.75;;;;;;;8.20;100.00;102238.63;5045523;28;20390;-81
2022/05/07 00:54:17;;;;;;;34.47;8.73;;;;;;;8.28;100.00;102238.03;5013199;28;20167;-85
2022/05/07 00:56:42;;;;;;;28.42;6.47;;;;;;;8.25;100.00;102232.91;5043366;28;20041;-83
2022/05/07 00:59:08;;;;;;;32.45;6.90;;;;;;;8.27;100.00;102245.22;5030944;28;20033;-83
2022/05/07 01:01:34;;;;;;;32.60;6.78;;;;;;;8.26;100.00;102230.13;5049389;28;20033;-84
2022/05/07 01:04:02;;;;;;;37.45;7.85;;;;;;;8.32;100.00;102232.28;5049201;28;20059;-87
2022/05/07 01:06:28;;;;;;;35.47;8.00;;;;;;;8.39;100.00;102240.75;5050853;28;20063;-82
2022/05/07 01:08:54;;;;;;;45.78;8.30;;;;;;;8.35;100.00;102231.19;5044680;28;20032;-83
2022/05/07 01:11:20;;;;;;;44.30;8.48;;;;;;;8.39;100.00;102227.34;5047292;28;20021;-84
2022/05/07 01:13:47;;;;;;;35.53;7.88;;;;;;;8.44;100.00;102227.81;5029750;28;20037;-81
2022/05/07 01:16:13;;;;;;;28.02;6.50;;;;;;;8.46;100.00;102211.59;5031928;28;20044;-85
2022/05/07 01:18:40;;;;;;;32.25;8.07;;;;;;;8.50;100.00;102215.72;5031412;28;20036;-83
2022/05/07 01:21:13;;;;;;;44.08;7.88;;;;;;;8.49;100.00;102214.84;5044781;28;20029;-83
2022/05/07 01:23:41;;;;;;;33.25;6.35;;;;;;;8.50;100.00;102221.94;5047992;28;20040;-83
2022/05/07 01:26:07;;;;;;;31.67;5.82;;;;;;;8.48;100.00;102212.31;5046288;28;20505;-85
2022/05/07 01:28:32;;;;;;;44.85;6.68;;;;;;;8.53;100.00;102218.16;5029511;28;20131;-83
2022/05/07 01:30:58;;;;;;;21.35;6.05;;;;;;;8.54;100.00;102209.97;5048943;28;20378;-85
2022/05/07 01:33:24;;;;;;;34.83;6.70;;;;;;;8.62;100.00;102220.06;5046087;28;20478;-84
2022/05/07 01:35:50;;;;;;;21.52;4.70;;;;;;;8.63;100.00;102223.63;5040305;28;20090;-86
2022/05/07 01:38:15;;;;;;;27.80;5.20;;;;;;;8.57;100.00;102224.94;5014408;28;20475;-83
2022/05/07 01:40:41;;;;;;;24.13;4.85;;;;;;;8.38;100.00;102202.31;5031907;28;20048;-81
2022/05/07 01:43:06;;;;;;;13.95;4.28;;;;;;;8.48;100.00;102218.53;5047109;28;20033;-82
2022/05/07 01:45:32;;;;;;;23.88;4.63;;;;;;;8.35;100.00;102199.03;5034667;28;20416;-81
2022/05/07 01:48:09;;;;;;;18.40;3.40;;;;;;;8.39;100.00;102219.28;5050729;28;20059;-85
2022/05/07 01:50:39;;;;;;;14.68;3.85;;;;;;;8.38;100.00;102223.75;5038210;28;20701;-84
2022/05/07 01:53:09;;;;;;;24.65;4.75;;;;;;;8.15;100.00;102185.44;5030604;28;20037;-84
2022/05/07 01:55:35;;;;;;;14.88;4.22;;;;;;;8.37;100.00;102231.94;5046251;28;20284;-81
2022/05/07 01:58:01;;;;;;;13.23;4.35;;;;;;;8.37;100.00;102232.78;5043956;28;20111;-84
2022/05/07 02:00:26;;;;;;;18.75;3.67;;;;;;;8.28;100.00;102227.31;5044599;28;20037;-84
2022/05/07 02:02:52;;;;;;;19.30;4.80;;;;;;;8.21;100.00;102218.06;5013703;28;20280;-84
2022/05/07 02:05:18;;;;;;;16.00;4.38;;;;;;;8.07;100.00;102203.97;5012317;28;20029;-86
2022/05/07 02:07:44;;;;;;;17.35;4.28;;;;;;;8.00;100.00;102202.75;5029728;28;20032;-84
2022/05/07 02:10:10;;;;;;;12.45;5.07;;;;;;;7.97;100.00;102196.81;5047293;28;20035;-85
2022/05/07 02:12:36;;;;;;;13.05;4.30;;;;;;;8.01;100.00;102207.13;5027631;28;20037;-81
2022/05/07 02:15:02;;;;;;;8.38;3.45;;;;;;;7.89;100.00;102192.91;5027300;28;20386;-82
2022/05/07 02:17:27;;;;;;;7.80;2.95;;;;;;;7.79;100.00;102191.09;5028137;28;20037;-81
2022/05/07 02:19:53;;;;;;;10.45;3.20;;;;;;;7.79;100.00;102207.16;5028199;28;20107;-83
2022/05/07 02:22:18;;;;;;;8.80;2.97;;;;;;;7.60;100.00;102192.56;5010028;28;20128;-83
2022/05/07 02:24:44;;;;;;;15.88;3.92;;;;;;;7.56;100.00;102207.13;5046506;28;20469;-83
2022/05/07 02:27:10;;;;;;;11.05;3.30;;;;;;;7.49;100.00;102213.97;5046473;28;20437;-82
2022/05/07 02:29:35;;;;;;;10.35;3.20;;;;;;;7.28;100.00;102197.75;5024640;28;20047;-86
2022/05/07 02:32:04;;;;;;;12.88;3.22;;;;;;;7.31;100.00;102220.75;5043452;28;20025;-83
2022/05/07 02:34:31;;;;;;;7.75;2.67;;;;;;;7.30;100.00;102225.22;5032205;28;20120;-81
2022/05/07 02:36:57;;;;;;;7.70;2.80;;;;;;;7.24;100.00;102225.72;5043752;28;20033;-83
2022/05/07 02:39:23;;;;;;;7.57;3.38;;;;;;;7.13;100.00;102223.84;5011248;28;20037;-82
2022/05/07 02:44:33;;;;;;;10.85;3.45;;;;;;;7.11;100.00;102225.78;5049999;28;20036;-82
2022/05/07 02:46:58;;;;;;;13.00;3.35;;;;;;;7.12;100.00;102232.88;5024441;28;20029;-82
2022/05/07 02:49:24;;;;;;;9.60;3.35;;;;;;;7.15;100.00;102232.63;5026702;28;20502;-81
2022/05/07 02:51:50;;;;;;;19.60;3.70;;;;;;;7.21;100.00;102229.47;5015127;28;20493;-83
2022/05/07 02:54:15;;;;;;;12.20;3.05;;;;;;;7.29;100.00;102238.75;5046938;28;20099;-83
2022/05/07 02:56:41;;;;;;;10.07;3.28;;;;;;;7.23;100.00;102243.59;5044907;28;20087;-83
2022/05/07 02:59:07;;;;;;;18.23;3.50;;;;;;;7.18;100.00;102239.56;5042902;28;20479;-82
2022/05/07 03:01:32;;;;;;;16.52;3.03;;;;;;;7.20;100.00;102245.66;5026468;28;20046;-81
2022/05/07 03:03:58;;;;;;;19.95;3.10;;;;;;;7.18;100.00;102242.25;5044269;28;20036;-82
2022/05/07 03:06:23;;;;;;;30.65;3.90;;;;;;;7.20;100.00;102234.97;5047313;28;20079;-82
2022/05/07 03:08:49;;;;;;;24.15;3.05;;;;;;;7.21;100.00;102237.50;5015936;28;20128;-84
2022/05/07 03:11:15;;;;;;;11.43;3.38;;;;;;;7.26;100.00;102246.03;5028641;28;20512;-81
2022/05/07 03:13:40;;;;;;;16.90;3.63;;;;;;;7.26;100.00;102234.47;5010885;28;20176;-81
2022/05/07 03:16:06;;;;;;;8.88;2.53;;;;;;;7.29;100.00;102234.22;5042112;28;20458;-81
2022/05/07 03:18:32;;;;;;;12.30;3.33;;;;;;;7.32;100.00;102247.38;5045526;28;20051;-82
2022/05/07 03:20:58;;;;;;;14.20;3.08;;;;;;;7.27;100.00;102231.66;5047032;28;20529;-83
2022/05/07 03:23:25;;;;;;;12.68;3.22;;;;;;;7.27;100.00;102226.31;5047149;28;20041;-83
2022/05/07 03:25:51;;;;;;;14.93;2.90;;;;;;;7.35;100.00;102252.47;5031953;28;20031;-81
2022/05/07 03:28:17;;;;;;;7.40;2.80;;;;;;;7.33;100.00;102257.13;5027691;28;20074;-82
2022/05/07 03:30:42;;;;;;;9.40;2.50;;;;;;;7.29;100.00;102255.63;5044529;28;20125;-80
2022/05/07 03:33:08;;;;;;;10.10;2.70;;;;;;;7.30;100.00;102254.66;5045839;28;20039;-81
2022/05/07 03:35:34;;;;;;;8.77;2.90;;;;;;;7.30;100.00;102257.34;5010090;28;20482;-83
2022/05/07 03:37:59;;;;;;;12.40;3.03;;;;;;;7.17;100.00;102237.84;5042035;28;20040;-82
2022/05/07 03:40:26;;;;;;;8.25;3.08;;;;;;;7.23;100.00;102250.75;5048035;28;20033;-84
2022/05/07 03:42:53;;;;;;;7.50;2.90;;;;;;;6.93;100.00;102208.47;5040602;28;20056;-81
2022/05/07 03:45:20;;;;;;;6.10;2.80;;;;;;;7.08;100.00;102254.59;5046315;28;20037;-82
2022/05/07 03:47:46;;;;;;;6.68;2.78;;;;;;;6.95;100.00;102249.31;5047137;28;20504;-80
2022/05/07 03:50:12;;;;;;;4.68;2.55;;;;;;;6.77;100.00;102249.75;5042623;28;20094;-81
2022/05/07 03:55:22;;;;;;;4.50;2.20;;;;;;;6.59;100.00;102257.31;5041440;28;20072;-83
2022/05/07 03:57:48;;;;;;;5.70;2.60;;;;;;;6.51;100.00;102258.81;5044305;28;20098;-80
2022/05/07 04:00:13;;;;;;;4.95;2.50;;;;;;;6.45;100.00;102259.28;5043354;28;20025;-80
2022/05/07 04:02:39;;;;;;;8.30;2.95;;;;;;;6.32;100.00;102252.16;5042001;28;20043;-85
2022/05/07 04:05:05;;;;;;;4.28;2.28;;;;;;;6.18;100.00;102256.78;5042668;28;20151;-82
2022/05/07 04:07:31;;;;;;;4.57;2.50;;;;;;;5.95;100.00;102235.25;5041135;28;20607;-81
2022/05/07 04:09:56;;;;;;;7.30;2.97;;;;;;;6.00;100.00;102259.81;5015036;28;20033;-81
2022/05/07 04:12:25;;;;;;;5.43;2.72;;;;;;;5.93;100.00;102253.19;5028118;28;20043;-80
2022/05/07 04:14:54;;;;;;;7.30;2.40;;;;;;;5.86;100.00;102252.75;5049165;28;20033;-80
2022/05/07 04:17:19;;;;;;;6.60;2.40;;;;;;;5.64;100.00;102248.06;5045142;28;20041;-82
2022/05/07 04:19:45;;;;;;;5.80;2.58;;;;;;;5.62;100.00;102244.66;5043939;28;20032;-82
2022/05/07 04:22:10;;;;;;;5.60;2.45;;;;;;;5.57;100.00;102249.47;5045132;28;20383;-81
2022/05/07 04:24:36;;;;;;;5.68;2.45;;;;;;;5.44;100.00;102244.13;5045926;28;20436;-81
2022/05/07 04:27:03;;;;;;;5.15;2.65;;;;;;;5.39;100.00;102254.25;5047855;28;20035;-83
2022/05/07 04:29:29;;;;;;;4.40;2.20;;;;;;;5.34;100.00;102256.38;5045168;28;20047;-81
2022/05/07 04:31:54;;;;;;;6.53;2.63;;;;;;;5.23;100.00;102234.91;5045681;28;20029;-80
2022/05/07 04:34:22;;;;;;;19.35;2.35;;;;;;;5.28;100.00;102249.66;5042461;28;20104;-81
2022/05/07 04:36:47;;;;;;;6.95;2.75;;;;;;;5.28;100.00;102257.66;5047164;28;20021;-80
2022/05/07 04:39:13;;;;;;;6.00;2.08;;;;;;;5.23;100.00;102256.25;5045599;28;20037;-82
2022/05/07 04:41:38;;;;;;;5.68;2.20;;;;;;;5.14;100.00;102252.41;5048972;28;20040;-81
2022/05/07 04:44:05;;;;;;;5.35;2.05;;;;;;;5.05;100.00;102247.69;5014421;28;20037;-81
2022/05/07 04:46:30;;;;;;;7.05;2.40;;;;;;;5.18;100.00;102264.56;5049301;28;20123;-83
2022/05/07 04:48:56;;;;;;;5.85;2.20;;;;;;;5.20;100.00;102265.31;5013694;28;20125;-81
2022/05/07 04:51:21;;;;;;;5.55;2.20;;;;;;;5.09;100.00;102232.34;5046875;28;20032;-80
2022/05/07 04:53:47;;;;;;;6.35;2.03;;;;;;;5.28;100.00;102268.31;5046538;28;20474;-81
2022/05/07 04:56:12;;;;;;;6.50;2.50;;;;;;;5.32;100.00;102252.97;5042060;28;20442;-82
2022/05/07 04:58:38;;;;;;;5.70;2.08;;;;;;;5.46;100.00;102260.03;5028228;28;20060;-82
2022/05/07 05:01:03;;;;;;;7.47;2.10;;;;;;;5.59;100.00;102257.38;5045778;28;20033;-82
2022/05/07 05:03:29;;;;;;;6.88;1.83;;;;;;;5.65;100.00;102255.09;5032834;28;20040;-83
2022/05/07 05:05:54;;;;;;;4.65;2.15;;;;;;;5.66;100.00;102245.28;5052834;28;20032;-83
2022/05/07 05:08:20;;;;;;;4.47;1.95;;;;;;;5.67;100.00;102258.53;5051289;28;20091;-81
2022/05/07 05:10:46;;;;;;;2.65;2.00;;;;;;;5.65;100.00;102263.13;5058091;28;20096;-81
2022/05/07 05:13:11;;;;;;;3.92;1.75;;;;;;;5.69;100.00;102259.28;5074193;28;20016;-82
2022/05/07 05:15:37;;;;;;;6.78;2.60;;;;;;;5.87;100.00;102264.28;5055924;28;20039;-79
2022/05/07 05:18:03;;;;;;;5.10;2.40;;;;;;;5.80;100.00;102241.66;5075321;28;20036;-81
2022/05/07 05:20:29;;;;;;;5.75;2.30;;;;;;;5.90;100.00;102264.06;5067991;28;20025;-81
2022/05/07 05:22:55;;;;;;;40.63;4.03;;;;;;;5.86;100.00;102267.91;5063594;28;20035;-82
2022/05/07 05:25:20;;;;;;;10.32;2.55;;;;;;;5.79;100.00;102261.28;5048408;28;20068;-82
2022/05/07 05:27:47;;;;;;;5.70;2.10;;;;;;;5.77;100.00;102261.41;5041673;28;20033;-82
2022/05/07 05:30:13;;;;;;;4.10;2.28;;;;;;;6.00;100.00;102249.13;5044947;28;20107;-84
2022/05/07 05:32:38;;;;;;;9.20;2.10;;;;;;;6.36;100.00;102248.31;5017000;28;20112;-81
2022/05/07 05:35:10;;;;;;;6.55;2.70;;;;;;;6.69;100.00;102237.91;5045314;28;20525;-83
2022/05/07 05:37:36;;;;;;;7.38;2.78;;;;;;;6.98;100.00;102271.31;5045633;28;20033;-81
2022/05/07 05:40:01;;;;;;;7.68;2.47;;;;;;;7.06;100.00;102273.44;5049710;28;20033;-80
2022/05/07 05:42:27;;;;;;;6.85;2.50;;;;;;;7.11;100.00;102275.75;5032734;28;20041;-82
2022/05/07 05:44:52;;;;;;;8.00;2.83;;;;;;;7.13;100.00;102273.84;5048484;28;20486;-82
2022/05/07 05:47:18;;;;;;;13.38;2.28;;;;;;;7.27;100.00;102284.31;5032321;28;20032;-81
2022/05/07 05:49:46;;;;;;;9.50;1.70;;;;;;;7.87;100.00;102271.66;5013842;28;20044;-80
2022/05/07 05:52:11;;;;;;;7.15;1.60;;;;;;;8.66;100.00;102275.16;5047602;28;20037;-80
2022/05/07 05:54:37;;;;;;;5.70;1.90;;;;;;;9.35;100.00;102282.78;5041516;28;20239;-80
2022/05/07 05:57:03;;;;;;;4.53;1.85;;;;;;;9.52;100.00;102281.34;5039389;28;20036;-82
2022/05/07 05:59:29;;;;;;;5.90;1.83;;;;;;;9.56;100.00;102284.63;5040961;28;20044;-84
2022/05/07 06:01:55;;;;;;;6.90;1.60;;;;;;;9.36;100.00;102278.25;5028407;28;20032;-81
2022/05/07 06:04:21;;;;;;;3.15;1.75;;;;;;;9.26;100.00;102278.19;5011615;28;20051;-81
2022/05/07 06:06:46;;;;;;;9.05;2.38;;;;;;;9.41;100.00;102279.56;5024434;28;20040;-82
2022/05/07 06:09:12;;;;;;;9.88;2.90;;;;;;;9.41;100.00;102281.41;5021744;28;21746;-81
2022/05/07 06:11:38;;;;;;;10.27;3.03;;;;;;;9.28;100.00;102286.97;5025139;28;20033;-80
2022/05/07 06:14:04;;;;;;;8.45;3.10;;;;;;;9.48;100.00;102292.50;5043618;28;20037;-81
2022/05/07 06:16:29;;;;;;;8.30;2.95;;;;;;;9.56;100.00;102287.31;5048470;28;20111;-85
2022/05/07 06:18:55;;;;;;;10.60;3.30;;;;;;;9.78;100.00;102299.72;5048502;28;20091;-81
2022/05/07 06:21:21;;;;;;;7.28;3.00;;;;;;;10.06;100.00;102287.44;5048001;28;20112;-83
2022/05/07 06:23:46;;;;;;;23.83;4.93;;;;;;;10.67;100.00;102291.91;5002316;28;20582;-82
2022/05/07 06:28:58;;;;;;;13.10;2.60;;;;;;;11.10;100.00;102290.66;5042163;28;20437;-82
2022/05/07 06:31:24;;;;;;;11.02;3.58;;;;;;;11.00;100.00;102288.78;5022035;28;20088;-80
2022/05/07 06:33:49;;;;;;;11.13;3.80;;;;;;;11.13;100.00;102295.75;5039931;28;20068;-81
2022/05/07 06:36:15;;;;;;;11.40;3.92;;;;;;;11.69;100.00;102292.25;5027447;28;20036;-83
2022/05/07 06:38:40;;;;;;;15.35;4.25;;;;;;;12.35;100.00;102299.44;5049239;28;20033;-82
2022/05/07 06:41:06;;;;;;;12.88;3.60;;;;;;;12.89;99.87;102294.16;5032283;28;20064;-81
2022/05/07 06:43:33;;;;;;;7.22;3.60;;;;;;;12.84;99.72;102286.50;5028350;28;20056;-82
2022/05/07 06:45:59;;;;;;;19.02;4.80;;;;;;;12.54;100.00;102302.03;5045804;28;20078;-85
2022/05/07 06:48:25;;;;;;;15.20;4.50;;;;;;;12.45;100.00;102304.78;5027647;28;20028;-82
2022/05/07 06:50:52;;;;;;;11.75;3.90;;;;;;;13.17;97.66;102292.19;5032639;28;20036;-87
2022/05/07 06:53:18;;;;;;;11.32;3.60;;;;;;;14.49;93.56;102305.53;5011846;28;20120;-82
2022/05/07 06:55:56;;;;;;;10.43;4.15;;;;;;;15.09;91.29;102312.66;5035651;28;20059;-81
2022/05/07 06:58:30;;;;;;;12.50;3.97;;;;;;;16.15;82.09;102303.59;5011498;28;20037;-82
2022/05/07 07:00:57;;;;;;;10.30;4.10;;;;;;;17.30;80.98;102311.94;5045132;28;20500;-83
2022/05/07 07:03:23;;;;;;;14.38;4.40;;;;;;;18.58;76.51;102308.22;5038259;28;20033;-81
2022/05/07 07:05:50;;;;;;;10.43;3.35;;;;;;;18.49;69.85;102309.34;5041043;28;20108;-81
2022/05/07 07:08:16;;;;;;;10.70;3.85;;;;;;;18.51;70.13;102310.00;5027898;28;20560;-79
2022/05/07 07:10:42;;;;;;;11.45;4.22;;;;;;;18.95;66.46;102307.19;5056349;28;20095;-80
2022/05/07 07:13:09;;;;;;;8.32;3.55;;;;;;;18.98;66.23;102314.16;5016397;28;20386;-83
2022/05/07 07:15:36;;;;;;;11.98;4.28;;;;;;;18.87;67.70;102321.78;5045658;28;20021;-80
2022/05/07 07:18:09;;;;;;;8.43;3.90;;;;;;;19.50;63.59;102318.38;5000918;28;20065;-81
2022/05/07 07:20:40;;;;;;;13.43;4.53;;;;;;;20.09;65.09;102318.03;5021952;28;20099;-80
2022/05/07 07:23:06;;;;;;;13.18;4.55;;;;;;;20.58;64.12;102300.63;5025178;28;20037;-80
2022/05/07 07:25:32;;;;;;;11.63;4.10;;;;;;;20.46;64.09;102315.91;5042255;28;20043;-79
2022/05/07 07:27:58;;;;;;;16.02;4.18;;;;;;;19.67;63.98;102314.38;5058015;28;20033;-80
2022/05/07 07:30:23;;;;;;;16.58;5.05;;;;;;;18.23;69.42;102316.13;5008853;28;20039;-83
2022/05/07 07:32:49;;;;;;;14.55;3.90;;;;;;;17.16;74.83;102312.75;5022085;28;20043;-84
2022/05/07 07:35:14;;;;;;;17.27;5.93;;;;;;;16.69;75.62;102320.81;5022892;28;20172;-79
2022/05/07 07:37:40;;;;;;;10.95;4.80;;;;;;;17.03;75.92;102316.91;5036455;28;20398;-84
2022/05/07 07:40:06;;;;;;;12.38;3.95;;;;;;;17.09;76.78;102327.06;5041874;28;20031;-84
2022/05/07 07:42:31;;;;;;;10.88;4.00;;;;;;;16.40;77.79;102329.59;5023339;28;20037;-85
2022/05/07 07:50:31;;;;;;;13.93;4.93;;;;;;;16.34;80.22;102332.19;5036298;28;20390;-83
2022/05/07 07:53:08;;;;;;;17.50;5.18;;;;;;;16.24;82.65;102335.94;5046717;28;20028;-83
2022/05/07 07:55:37;;;;;;;13.93;4.45;;;;;;;16.12;80.33;102328.38;5042362;28;20128;-84
2022/05/07 07:58:05;;;;;;;12.73;4.30;;;;;;;15.62;82.72;102324.88;5028277;28;20048;-85
2022/05/07 08:00:38;;;;;;;18.02;6.45;;;;;;;15.64;83.44;102325.56;5008394;28;20113;-84
2022/05/07 08:03:10;;;;;;;16.48;4.78;;;;;;;15.77;82.27;102306.03;5017575;28;20159;-82
2022/05/07 08:05:37;;;;;;;20.23;5.05;;;;;;;15.93;81.11;102294.31;5019438;28;20036;-83
2022/05/07 08:13:41;;;;;;;15.25;4.90;;;;;;;16.43;80.57;102340.13;5022402;28;20049;-84
2022/05/07 08:16:08;;;;;;;13.77;4.38;;;;;;;16.36;81.34;102352.72;5022405;28;20056;-84
2022/05/07 08:18:34;;;;;;;11.23;4.18;;;;;;;16.22;79.95;102356.13;5020470;28;20124;-82
2022/05/07 08:21:00;;;;;;;15.05;4.72;;;;;;;15.93;79.25;102344.00;5038953;28;20029;-82
2022/05/07 08:23:26;;;;;;;15.38;4.32;;;;;;;15.73;80.98;102350.81;5042361;28;20024;-82
2022/05/07 08:25:53;;;;;;;13.55;4.40;;;;;;;15.45;76.22;102344.84;5012713;28;20518;-86
2022/05/07 08:28:19;;;;;;;15.57;5.32;;;;;;;15.30;82.59;102352.81;5046745;28;20029;-81
2022/05/07 08:30:45;;;;;;;15.43;5.20;;;;;;;15.23;81.99;102330.97;5053421;28;20048;-86
2022/05/07 08:33:11;;;;;;;13.15;4.82;;;;;;;15.43;81.47;102352.31;5049171;28;20044;-85
2022/05/07 08:35:37;;;;;;;14.60;5.50;;;;;;;15.82;81.47;102347.94;5048993;28;20033;-90
2022/05/07 08:38:02;;;;;;;16.48;4.57;;;;;;;16.09;79.26;102351.28;5018307;28;20095;-86
2022/05/07 08:40:28;;;;;;;16.75;4.95;;;;;;;16.04;80.19;102338.22;5029325;28;20033;-88
2022/05/07 08:42:55;;;;;;;14.80;4.18;;;;;;;16.08;78.58;102343.28;5045861;28;20024;-86
2022/05/07 08:45:21;;;;;;;16.10;6.90;;;;;;;15.89;80.64;102330.97;5034891;28;20458;-86
2022/05/07 08:47:51;;;;;;;12.40;4.53;;;;;;;15.90;83.23;102330.78;5036882;28;20120;-86
2022/05/07 08:50:20;;;;;;;15.88;4.97;;;;;;;16.00;78.50;102331.44;5031249;28;20088;-81
2022/05/07 08:52:46;;;;;;;11.93;5.60;;;;;;;16.05;77.60;102344.47;5043351;28;20558;-81
2022/05/07 08:55:15;;;;;;;12.65;5.22;;;;;;;15.84;79.09;102334.19;5031685;28;20037;-81
2022/05/07 08:57:42;;;;;;;15.05;5.50;;;;;;;15.99;79.17;102334.34;5046440;28;20130;-82
2022/05/07 09:00:12;;;;;;;12.93;3.85;;;;;;;16.07;75.87;102328.03;5035670;28;20543;-82
2022/05/07 09:02:48;;;;;;;13.13;4.88;;;;;;;16.17;77.41;102321.41;5031815;28;20559;-81
2022/05/07 09:05:16;;;;;;;14.82;5.35;;;;;;;16.68;73.50;102323.72;5048923;28;20470;-82
2022/05/07 09:07:52;;;;;;;15.43;5.03;;;;;;;16.92;73.10;102314.59;5051551;28;20086;-81
2022/05/07 09:10:19;;;;;;;16.23;4.40;;;;;;;16.92;71.64;102315.44;5022785;28;20367;-81
2022/05/07 09:12:47;;;;;;;17.55;5.18;;;;;;;17.09;69.67;102328.91;5040691;28;20033;-85
2022/05/07 09:15:13;;;;;;;19.77;6.40;;;;;;;17.53;68.20;102330.97;5047466;28;20047;-83
2022/05/07 09:17:41;;;;;;;10.43;4.95;;;;;;;17.55;67.48;102335.19;5033318;28;20045;-84
2022/05/07 09:20:13;;;;;;;12.45;4.60;;;;;;;17.77;65.79;102332.59;5051405;28;20093;-84
2022/05/07 09:22:49;;;;;;;8.55;4.10;;;;;;;17.97;62.42;102332.94;5019597;28;20044;-83
2022/05/07 09:25:26;;;;;;;7.35;3.08;;;;;;;18.47;61.84;102328.63;5035975;28;20048;-86
2022/05/07 09:27:57;;;;;;;13.75;4.35;;;;;;;20.31;55.73;102310.56;5050962;28;20025;-87
2022/05/07 09:30:27;;;;;;;14.23;4.57;;;;;;;20.53;57.09;102324.09;5025224;28;20039;-87
2022/05/07 09:32:54;;;;;;;11.15;4.57;;;;;;;21.01;51.15;102329.53;5018291;28;20025;-87
2022/05/07 09:38:09;;;;;;;11.30;4.38;;;;;;;19.97;53.08;102333.25;5055502;28;20033;-85
2022/05/07 09:40:40;;;;;;;13.40;5.05;;;;;;;19.33;57.80;102334.19;5018042;28;20043;-86
2022/05/07 09:43:09;;;;;;;16.02;5.20;;;;;;;20.07;56.65;102322.84;5036122;28;20043;-84
2022/05/07 09:45:36;;;;;;;8.98;4.13;;;;;;;20.67;53.14;102327.75;5019254;28;20035;-88
2022/05/07 09:48:02;;;;;;;13.40;4.10;;;;;;;20.89;53.97;102318.38;5033312;28;20037;-85
2022/05/07 09:58:39;;;;;;;7.60;4.35;;;;;;;23.16;44.44;102329.78;5048127;28;19917;-86
2022/05/07 10:01:26;;;;;;;12.70;4.95;;;;;;;23.68;42.59;102335.88;5051406;28;20040;-86
2022/05/07 10:04:06;;;;;;;8.15;3.95;;;;;;;25.98;37.73;102333.25;5053322;28;20036;-87
2022/05/07 10:06:41;;;;;;;10.85;4.20;;;;;;;26.25;39.23;102330.78;5040356;28;20467;-85
2022/05/07 10:09:28;;;;;;;12.07;4.72;;;;;;;26.23;38.87;102325.53;5030367;28;20037;-83
2022/05/07 10:11:55;;;;;;;9.65;4.90;;;;;;;27.21;37.05;102327.50;5033125;28;20041;-84
2022/05/07 10:14:30;;;;;;;12.43;4.93;;;;;;;26.47;38.08;102311.69;5034677;28;20063;-86
2022/05/07 10:17:00;;;;;;;10.27;4.13;;;;;;;24.50;41.16;102327.44;5044272;28;20067;-85
2022/05/07 10:19:43;;;;;;;12.85;4.53;;;;;;;22.87;44.31;102309.25;5044358;28;20060;-89
2022/05/07 10:22:21;;;;;;;14.98;5.30;;;;;;;23.46;43.85;102330.78;5017653;28;20491;-84
2022/05/07 10:24:47;;;;;;;10.88;5.15;;;;;;;26.15;38.29;102319.56;5034243;28;20170;-86
2022/05/07 10:27:25;;;;;;;13.10;4.63;;;;;;;27.28;36.85;102330.91;5048727;28;20108;-86
2022/05/07 10:29:51;;;;;;;12.10;4.28;;;;;;;28.16;34.68;102325.66;5048975;28;20029;-89
2022/05/07 10:32:18;;;;;;;7.30;4.50;;;;;;;28.57;34.70;102318.72;5049951;28;20470;-86
2022/05/07 10:34:53;;;;;;;10.48;4.93;;;;;;;28.34;33.18;102318.94;5050119;28;20044;-84
2022/05/07 10:37:19;;;;;;;8.68;4.15;;;;;;;25.96;35.84;102313.34;5045096;28;20037;-88
2022/05/07 10:39:52;;;;;;;9.90;4.95;;;;;;;25.80;37.73;102324.00;5049654;28;20365;-83
2022/05/07 10:42:18;;;;;;;;;;;;;;;26.03;36.29;102314.91;5034555;28;20025;-82
2022/05/07 10:44:44;;;;;;;8.25;3.83;;;;;;;26.73;35.89;102322.19;5063070;28;19924;-84
2022/05/07 10:47:20;;;;;;;8.77;3.58;;;;;;;25.37;37.00;102319.66;5034284;28;20040;-84
2022/05/07 10:49:55;;;;;;;8.60;4.10;;;;;;;26.59;35.60;102325.47;5047915;28;20485;-85
2022/05/07 10:52:32;;;;;;;7.78;4.20;;;;;;;27.38;33.96;102323.63;5021817;28;20065;-84
2022/05/07 10:55:08;;;;;;;8.88;4.13;;;;;;;27.93;33.25;102310.97;5012205;28;20041;-83
2022/05/07 10:57:45;;;;;;;7.25;3.83;;;;;;;28.88;31.25;102308.81;5057543;28;20025;-87
2022/05/07 11:00:17;;;;;;;7.47;3.78;;;;;;;28.54;30.94;102318.41;5034250;28;20025;-83
2022/05/07 11:02:45;;;;;;;7.15;3.72;;;;;;;28.49;31.79;102310.88;5047388;28;20033;-85
2022/05/07 11:05:11;;;;;;;12.43;5.10;;;;;;;28.53;31.23;102305.66;5050532;28;20042;-86
2022/05/07 11:07:40;;;;;;;8.25;4.15;;;;;;;28.48;30.43;102300.91;5014265;28;20049;-84
2022/05/07 11:10:07;;;;;;;8.07;4.05;;;;;;;28.71;30.73;102283.16;5015819;28;20055;-84
2022/05/07 11:12:35;;;;;;;5.45;3.33;;;;;;;29.64;30.30;102299.53;5034855;28;20028;-87
2022/05/07 11:15:02;;;;;;;11.05;5.32;;;;;;;29.38;30.51;102298.47;5051584;28;20036;-85
2022/05/07 11:17:34;;;;;;;10.77;5.03;;;;;;;29.09;29.36;102284.94;5049994;28;20047;-84
2022/05/07 11:20:00;;;;;;;8.13;4.22;;;;;;;28.60;31.37;102296.06;5044286;28;20029;-84
2022/05/07 11:22:30;;;;;;;8.05;4.65;;;;;;;28.57;31.52;102287.44;5032105;28;20101;-85
2022/05/07 11:25:00;;;;;;;9.13;4.05;;;;;;;28.85;30.68;102289.13;5048594;28;20083;-83
2022/05/07 11:27:30;;;;;;;11.07;4.07;;;;;;;29.26;30.39;102283.97;5066347;28;20040;-88
2022/05/07 11:29:56;;;;;;;9.60;4.22;;;;;;;29.61;31.29;102280.59;5050858;28;20375;-85
2022/05/07 11:32:22;;;;;;;6.68;4.18;;;;;;;30.26;27.31;102288.78;5052755;28;20036;-87
2022/05/07 11:34:53;;;;;;;8.60;3.97;;;;;;;30.27;28.35;102284.88;5033349;28;20032;-84
2022/05/07 11:37:23;;;;;;;7.80;3.55;;;;;;;29.70;29.41;102284.59;5046866;28;20029;-82
2022/05/07 11:39:54;;;;;;;10.50;4.13;;;;;;;29.09;30.37;102286.88;5005547;28;20194;-90
2022/05/07 11:42:39;;;;;;;9.77;3.45;;;;;;;29.28;29.54;102262.38;5048166;28;20408;-89
2022/05/07 11:45:29;;;;;;;7.75;3.35;;;;;;;30.06;29.18;102279.22;5022761;28;20501;-90
2022/05/07 11:48:23;;;;;;;7.50;3.67;;;;;;;31.02;26.53;102272.31;5044580;28;20052;-88
2022/05/07 11:51:01;;;;;;;6.57;3.80;;;;;;;31.05;27.81;102268.97;5017866;28;20068;-89
2022/05/07 11:53:31;;;;;;;8.35;3.38;;;;;;;31.16;26.72;102255.09;5045360;28;20099;-87